createdAt,value
2022-12-03T00:00:13.137Z,43.83
2022-12-03T00:02:42.247Z,40.00
2022-12-03T00:05:11.628Z,40.77
2022-12-03T00:07:40.176Z,39.60
2022-12-03T00:10:10.463Z,41.70
2022-12-03T00:12:39.328Z,43.10
2022-12-03T00:15:10.811Z,42.23
2022-12-03T00:17:41.177Z,43.63
2022-12-03T00:20:10.666Z,40.57
2022-12-03T00:22:39.673Z,40.50
2022-12-03T00:25:10.166Z,40.17
2022-12-03T00:27:38.751Z,40.17
2022-12-03T00:30:10.687Z,42.07
2022-12-03T00:32:39.385Z,40.10
2022-12-03T00:35:08.569Z,39.67
2022-12-03T00:37:38.717Z,41.97
2022-12-03T00:40:08.625Z,43.27
2022-12-03T00:42:37.139Z,38.87
2022-12-03T00:45:06.643Z,40.73
2022-12-03T00:47:37.174Z,42.63
2022-12-03T00:50:06.385Z,38.00
2022-12-03T00:52:35.844Z,37.93
2022-12-03T00:55:06.258Z,39.37
2022-12-03T00:57:34.689Z,38.93
2022-12-03T01:00:03.157Z,37.40
2022-12-03T01:02:31.485Z,36.70
2022-12-03T01:05:01.275Z,39.93
2022-12-03T01:07:29.973Z,39.57
2022-12-03T01:09:58.956Z,38.20
2022-12-03T01:12:27.445Z,37.97
2022-12-03T01:14:56.477Z,36.17
2022-12-03T01:17:24.908Z,35.13
2022-12-03T01:19:53.555Z,40.33
2022-12-03T01:22:23.702Z,36.93
2022-12-03T01:24:52.922Z,38.13
2022-12-03T01:27:22.001Z,35.80
2022-12-03T01:29:50.509Z,37.43
2022-12-03T01:32:19.517Z,36.87
2022-12-03T01:34:51.501Z,37.37
2022-12-03T01:37:21.689Z,36.90
2022-12-03T01:39:52.002Z,36.37
2022-12-03T01:42:23.433Z,38.90
2022-12-03T01:44:54.081Z,37.47
2022-12-03T01:47:28.175Z,38.20
2022-12-03T01:50:01.010Z,37.30
2022-12-03T01:52:33.567Z,39.30
2022-12-03T01:55:06.207Z,40.33
2022-12-03T01:57:41.015Z,35.07
2022-12-03T02:00:15.105Z,39.10
2022-12-03T02:02:43.969Z,36.73
2022-12-03T02:05:19.404Z,39.33
2022-12-03T02:07:48.318Z,41.83
2022-12-03T02:10:21.021Z,40.20
2022-12-03T02:12:55.698Z,42.17
2022-12-03T02:15:24.693Z,38.03
2022-12-03T02:17:55.021Z,37.70
2022-12-03T02:20:24.875Z,39.07
2022-12-03T02:23:02.375Z,40.80
2022-12-03T02:25:35.377Z,40.10
2022-12-03T02:28:07.085Z,37.10
2022-12-03T02:30:35.905Z,38.83
2022-12-03T02:33:05.079Z,40.23
2022-12-03T02:35:37.016Z,36.80
2022-12-03T02:38:13.196Z,37.87
2022-12-03T02:40:44.493Z,41.17
2022-12-03T02:43:15.065Z,41.13
2022-12-03T02:45:46.277Z,37.73
2022-12-03T02:48:17.851Z,40.90
2022-12-03T02:50:51.542Z,39.77
2022-12-03T02:53:23.049Z,38.63
2022-12-03T02:55:54.405Z,38.27
2022-12-03T02:58:24.216Z,38.67
2022-12-03T03:00:54.625Z,35.63
2022-12-03T03:03:25.575Z,36.83
2022-12-03T03:05:56.869Z,37.70
2022-12-03T03:08:26.525Z,37.70
2022-12-03T03:10:57.147Z,39.27
2022-12-03T03:13:28.607Z,35.63
2022-12-03T03:15:59.082Z,37.23
2022-12-03T03:18:27.417Z,40.30
2022-12-03T03:20:56.249Z,37.97
2022-12-03T03:23:25.584Z,40.17
2022-12-03T03:25:59.445Z,37.87
2022-12-03T03:28:30.033Z,38.73
2022-12-03T03:31:01.167Z,37.93
2022-12-03T03:33:29.708Z,39.40
2022-12-03T03:36:00.377Z,37.83
2022-12-03T03:38:30.194Z,34.90
2022-12-03T03:41:01.353Z,35.17
2022-12-03T03:43:30.617Z,36.80
2022-12-03T03:45:59.004Z,36.63
2022-12-03T03:48:27.866Z,37.53
2022-12-03T03:50:57.243Z,34.00
2022-12-03T03:53:26.075Z,36.43
2022-12-03T03:55:54.759Z,39.20
2022-12-03T03:58:24.552Z,36.53
2022-12-03T04:00:53.393Z,33.97
2022-12-03T04:03:21.807Z,35.73
2022-12-03T04:05:51.384Z,37.57
2022-12-03T04:08:20.307Z,36.07
2022-12-03T04:11:06.269Z,34.13
2022-12-03T04:13:36.059Z,33.50
2022-12-03T04:16:04.723Z,35.67
2022-12-03T04:18:45.004Z,39.30
2022-12-03T04:21:44.234Z,35.43
2022-12-03T04:24:13.263Z,37.57
2022-12-03T04:26:59.282Z,35.43
2022-12-03T04:29:29.003Z,36.57
2022-12-03T04:32:15.029Z,37.07
2022-12-03T04:35:01.284Z,35.47
2022-12-03T04:37:29.963Z,32.03
2022-12-03T04:39:58.263Z,34.70
2022-12-03T04:42:28.139Z,34.57
2022-12-03T04:44:58.396Z,36.23
2022-12-03T04:47:26.891Z,36.80
2022-12-03T04:49:55.063Z,36.03
2022-12-03T04:52:23.571Z,34.03
2022-12-03T04:54:52.075Z,39.00
2022-12-03T04:57:22.115Z,36.53
2022-12-03T04:59:50.291Z,34.90
2022-12-03T05:02:21.274Z,36.93
2022-12-03T05:04:49.527Z,34.77
2022-12-03T05:07:18.327Z,34.30
2022-12-03T05:09:46.654Z,36.67
2022-12-03T05:12:15.267Z,33.60
2022-12-03T05:14:43.619Z,33.33
2022-12-03T05:17:12.081Z,38.93
2022-12-03T05:19:58.663Z,37.77
2022-12-03T05:22:27.276Z,32.57
2022-12-03T05:24:55.953Z,36.67
2022-12-03T05:27:24.530Z,33.47
2022-12-03T05:29:53.061Z,37.10
2022-12-03T05:32:21.639Z,37.07
2022-12-03T05:34:51.794Z,37.97
2022-12-03T05:37:20.578Z,36.43
2022-12-03T05:39:48.987Z,34.10
2022-12-03T05:42:35.377Z,35.17
2022-12-03T05:45:03.959Z,35.07
2022-12-03T05:47:32.419Z,34.87
2022-12-03T05:50:02.877Z,35.17
2022-12-03T05:52:31.963Z,37.20
2022-12-03T05:55:00.429Z,35.13
2022-12-03T05:57:29.104Z,35.27
2022-12-03T05:59:57.561Z,34.93
2022-12-03T06:02:26.209Z,36.93
2022-12-03T06:04:54.921Z,36.43
2022-12-03T06:07:25.784Z,33.73
2022-12-03T06:09:54.294Z,33.37
2022-12-03T06:12:22.520Z,32.50
2022-12-03T06:14:50.931Z,38.17
2022-12-03T06:17:19.317Z,31.83
2022-12-03T06:19:47.961Z,36.90
2022-12-03T06:22:16.480Z,35.50
2022-12-03T06:24:46.455Z,35.10
2022-12-03T06:27:14.883Z,32.90
2022-12-03T06:29:43.356Z,34.37
2022-12-03T06:32:12.005Z,35.97
2022-12-03T06:34:40.850Z,34.73
2022-12-03T06:37:09.464Z,34.20
2022-12-03T06:39:40.209Z,34.40
2022-12-03T06:42:10.172Z,35.30
2022-12-03T06:44:38.468Z,34.60
2022-12-03T06:47:08.379Z,34.10
2022-12-03T06:49:37.960Z,35.33
2022-12-03T06:52:06.515Z,37.53
2022-12-03T06:54:35.084Z,36.17
2022-12-03T06:57:03.369Z,35.57
2022-12-03T06:59:34.243Z,36.77
2022-12-03T07:02:02.709Z,34.40
2022-12-03T07:04:31.236Z,38.63
2022-12-03T07:07:00.570Z,55.17
2022-12-03T07:09:28.976Z,41.20
2022-12-03T07:11:57.450Z,36.43
2022-12-03T07:14:25.956Z,39.73
2022-12-03T07:16:55.618Z,35.00
2022-12-03T07:19:32.096Z,36.97
2022-12-03T07:22:01.080Z,41.77
2022-12-03T07:24:29.825Z,34.03
2022-12-03T07:26:58.285Z,37.20
2022-12-03T07:29:26.589Z,35.40
2022-12-03T07:31:56.414Z,37.07
2022-12-03T07:34:25.691Z,37.90
2022-12-03T07:36:54.663Z,37.07
2022-12-03T07:39:23.187Z,36.23
2022-12-03T07:41:51.767Z,39.13
2022-12-03T07:44:20.264Z,36.93
2022-12-03T07:46:49.572Z,35.13
2022-12-03T07:49:19.468Z,40.07
2022-12-03T07:51:54.048Z,36.33
2022-12-03T07:54:22.846Z,39.90
2022-12-03T07:56:54.338Z,40.63
2022-12-03T07:59:24.931Z,34.10
2022-12-03T08:01:53.445Z,37.07
2022-12-03T08:04:23.497Z,38.57
2022-12-03T08:06:51.734Z,40.40
2022-12-03T08:09:20.299Z,40.73
2022-12-03T08:11:50.387Z,40.70
2022-12-03T08:14:21.212Z,36.83
2022-12-03T08:16:52.417Z,38.93
2022-12-03T08:19:21.011Z,42.10
2022-12-03T08:21:52.276Z,34.67
2022-12-03T08:24:23.273Z,33.73
2022-12-03T08:26:51.890Z,39.57
2022-12-03T08:29:21.403Z,40.23
2022-12-03T08:31:52.130Z,40.30
2022-12-03T08:34:22.631Z,39.50
2022-12-03T08:36:57.256Z,38.63
2022-12-03T08:39:33.252Z,42.50
2022-12-03T08:42:28.919Z,42.13
2022-12-03T08:44:59.929Z,40.17
2022-12-03T08:47:30.788Z,40.43
2022-12-03T08:50:09.646Z,41.27
2022-12-03T08:52:39.598Z,37.90
2022-12-03T08:55:35.286Z,44.13
2022-12-03T08:58:15.023Z,42.37
2022-12-03T09:00:43.711Z,39.60
2022-12-03T09:03:16.645Z,38.67
2022-12-03T09:05:45.332Z,43.73
2022-12-03T09:08:15.167Z,40.53
2022-12-03T09:10:43.608Z,43.80
2022-12-03T09:13:12.100Z,38.63
2022-12-03T09:15:40.655Z,39.10
2022-12-03T09:18:09.934Z,50.57
2022-12-03T09:20:38.627Z,40.97
2022-12-03T09:23:08.714Z,41.80
2022-12-03T09:25:38.885Z,40.70
2022-12-03T09:28:08.223Z,42.87
2022-12-03T09:30:36.554Z,41.77
2022-12-03T09:33:05.992Z,44.17
2022-12-03T09:35:34.263Z,38.83
2022-12-03T09:38:02.651Z,39.57
2022-12-03T09:40:31.211Z,42.23
2022-12-03T09:43:02.235Z,46.67
2022-12-03T09:45:30.748Z,44.03
2022-12-03T09:48:02.863Z,39.63
2022-12-03T09:50:44.574Z,43.43
2022-12-03T09:53:18.614Z,41.07
2022-12-03T09:55:48.225Z,43.53
2022-12-03T09:58:19.764Z,41.33
2022-12-03T10:00:51.483Z,48.83
2022-12-03T10:03:29.500Z,46.40
2022-12-03T10:05:58.915Z,43.83
2022-12-03T10:08:32.187Z,42.47
2022-12-03T10:11:01.325Z,41.70
2022-12-03T10:13:32.500Z,42.50
2022-12-03T10:16:02.511Z,41.90
2022-12-03T10:18:36.941Z,43.93
2022-12-03T10:21:19.243Z,39.73
2022-12-03T10:23:54.915Z,39.53
2022-12-03T10:26:40.721Z,42.00
2022-12-03T10:29:16.307Z,43.67
2022-12-03T10:31:44.889Z,47.37
2022-12-03T10:34:13.375Z,59.67
2022-12-03T10:36:42.246Z,49.17
2022-12-03T10:39:13.662Z,44.43
2022-12-03T10:41:43.468Z,46.57
2022-12-03T10:44:17.900Z,40.37
2022-12-03T10:46:47.563Z,45.33
2022-12-03T10:49:18.489Z,40.10
2022-12-03T10:51:49.015Z,42.97
2022-12-03T10:54:20.884Z,43.07
2022-12-03T10:56:52.607Z,43.63
2022-12-03T10:59:25.129Z,43.00
2022-12-03T11:01:54.046Z,49.83
2022-12-03T11:04:26.882Z,54.93
2022-12-03T11:06:55.571Z,46.93
2022-12-03T11:09:30.241Z,48.60
2022-12-03T11:12:05.508Z,44.03
2022-12-03T11:15:15.174Z,46.00
2022-12-03T11:17:49.493Z,44.37
2022-12-03T11:21:12.379Z,44.50
2022-12-03T11:24:04.051Z,45.57
2022-12-03T11:27:18.299Z,39.20
2022-12-03T11:30:09.221Z,43.53
2022-12-03T11:33:20.969Z,44.57
2022-12-03T11:36:15.325Z,47.83
2022-12-03T11:38:52.935Z,42.60
2022-12-03T11:41:28.247Z,49.77
2022-12-03T11:44:06.003Z,46.90
2022-12-03T11:46:44.317Z,68.60
2022-12-03T11:49:26.535Z,52.47
2022-12-03T11:51:56.227Z,48.93
2022-12-03T11:54:25.354Z,48.77
2022-12-03T11:56:57.492Z,45.83
2022-12-03T11:59:27.745Z,49.67
2022-12-03T12:01:56.484Z,48.10
2022-12-03T12:04:32.484Z,47.23
2022-12-03T12:07:01.840Z,47.17
2022-12-03T12:09:49.910Z,47.53
2022-12-03T12:12:20.467Z,46.53
2022-12-03T12:14:49.412Z,44.50
2022-12-03T12:17:31.716Z,43.60
2022-12-03T12:20:24.406Z,44.53
2022-12-03T12:22:54.486Z,46.47
2022-12-03T12:25:40.916Z,45.47
2022-12-03T12:28:10.505Z,47.17
2022-12-03T12:30:40.234Z,44.00
2022-12-03T12:33:15.834Z,44.40
2022-12-03T12:35:46.037Z,50.90
2022-12-03T12:38:17.869Z,45.70
2022-12-03T12:40:49.385Z,46.83
2022-12-03T12:43:26.234Z,45.43
2022-12-03T12:45:56.483Z,44.40
2022-12-03T12:48:27.832Z,44.10
2022-12-03T12:51:03.503Z,46.53
2022-12-03T12:53:34.930Z,42.53
2022-12-03T12:56:12.617Z,44.20
2022-12-03T12:58:44.168Z,43.50
2022-12-03T13:01:22.152Z,44.97
2022-12-03T13:03:54.182Z,47.17
2022-12-03T13:06:26.996Z,44.30
2022-12-03T13:08:56.063Z,44.50
2022-12-03T13:11:35.589Z,40.90
2022-12-03T13:14:11.967Z,44.23
2022-12-03T13:16:40.734Z,39.37
2022-12-03T13:19:20.915Z,45.87
2022-12-03T13:21:53.597Z,47.80
2022-12-03T13:24:31.330Z,43.23
2022-12-03T13:27:03.126Z,47.97
2022-12-03T13:29:33.461Z,41.37
2022-12-03T13:32:10.386Z,46.10
2022-12-03T13:34:39.138Z,44.37
2022-12-03T13:37:15.023Z,50.47
2022-12-03T13:39:49.706Z,46.50
2022-12-03T13:42:42.346Z,45.50
2022-12-03T13:45:32.329Z,47.47
2022-12-03T13:48:02.622Z,47.60
2022-12-03T13:50:36.141Z,47.47
2022-12-03T13:53:14.818Z,48.43
2022-12-03T13:55:57.308Z,45.97
2022-12-03T13:58:25.598Z,46.83
2022-12-03T14:00:54.131Z,62.53
2022-12-03T14:03:23.291Z,56.73
2022-12-03T14:05:51.955Z,52.90
2022-12-03T14:08:22.681Z,53.57
2022-12-03T14:10:55.543Z,50.40
2022-12-03T14:13:26.032Z,47.07
2022-12-03T14:15:54.576Z,46.17
2022-12-03T14:18:23.157Z,46.37
2022-12-03T14:20:51.625Z,47.90
2022-12-03T14:23:22.419Z,44.20
2022-12-03T14:25:50.926Z,44.17
2022-12-03T14:28:19.323Z,45.03
2022-12-03T14:30:50.429Z,47.07
2022-12-03T14:33:18.877Z,49.37
2022-12-03T14:35:47.491Z,44.30
2022-12-03T14:38:16.169Z,51.13
2022-12-03T14:40:46.056Z,49.57
2022-12-03T14:43:14.374Z,47.37
2022-12-03T14:45:43.013Z,50.07
2022-12-03T14:48:11.869Z,50.03
2022-12-03T14:50:40.319Z,53.47
2022-12-03T14:53:09.259Z,47.33
2022-12-03T14:55:38.714Z,49.90
2022-12-03T14:58:08.419Z,43.47
2022-12-03T15:00:37.999Z,49.50
2022-12-03T15:03:06.714Z,50.30
2022-12-03T15:05:35.382Z,48.13
2022-12-03T15:08:03.787Z,49.07
2022-12-03T15:10:32.512Z,47.87
2022-12-03T15:13:00.798Z,49.37
2022-12-03T15:15:30.833Z,53.63
2022-12-03T15:17:59.139Z,50.03
2022-12-03T15:20:27.756Z,48.80
2022-12-03T15:22:56.171Z,46.27
2022-12-03T15:25:25.598Z,46.97
2022-12-03T15:27:54.446Z,49.73
2022-12-03T15:30:23.914Z,49.80
2022-12-03T15:32:53.711Z,53.53
2022-12-03T15:35:22.182Z,50.73
2022-12-03T15:37:50.530Z,51.60
2022-12-03T15:40:20.750Z,54.73
2022-12-03T15:42:49.294Z,53.73
2022-12-03T15:45:20.027Z,54.43
2022-12-03T15:47:48.431Z,50.97
2022-12-03T15:50:18.258Z,50.07
2022-12-03T15:52:47.133Z,46.67
2022-12-03T15:55:16.411Z,48.43
2022-12-03T15:57:48.516Z,54.43
2022-12-03T16:00:19.508Z,49.00
2022-12-03T16:02:52.621Z,48.03
2022-12-03T16:05:23.048Z,48.87
2022-12-03T16:07:51.370Z,48.30
2022-12-03T16:10:21.433Z,52.03
2022-12-03T16:12:50.173Z,48.53
2022-12-03T16:15:22.246Z,52.53
2022-12-03T16:17:53.823Z,47.40
2022-12-03T16:20:23.742Z,53.20
2022-12-03T16:22:53.278Z,52.23
2022-12-03T16:25:22.181Z,51.47
2022-12-03T16:27:50.700Z,55.17
2022-12-03T16:30:19.522Z,48.37
2022-12-03T16:32:49.048Z,51.20
2022-12-03T16:35:17.567Z,52.27
2022-12-03T16:37:48.330Z,52.17
2022-12-03T16:40:17.634Z,47.77
2022-12-03T16:42:46.446Z,52.37
2022-12-03T16:45:51.535Z,49.43
2022-12-03T16:48:20.033Z,62.47
2022-12-03T16:50:48.419Z,52.50
2022-12-03T16:53:18.635Z,53.17
2022-12-03T16:55:46.916Z,52.40
2022-12-03T16:58:15.454Z,48.73
2022-12-03T17:00:44.026Z,49.43
2022-12-03T17:03:12.289Z,47.63
2022-12-03T17:05:40.672Z,50.93
2022-12-03T17:08:12.259Z,49.60
2022-12-03T17:10:42.397Z,49.03
2022-12-03T17:13:11.629Z,47.50
2022-12-03T17:15:41.040Z,48.90
2022-12-03T17:18:11.247Z,47.20
2022-12-03T17:20:40.534Z,47.30
2022-12-03T17:23:10.256Z,48.43
2022-12-03T17:25:38.776Z,50.10
2022-12-03T17:28:08.574Z,50.50
2022-12-03T17:30:37.079Z,50.13
2022-12-03T17:33:05.828Z,49.43
2022-12-03T17:35:34.278Z,52.63
2022-12-03T17:38:02.900Z,52.77
2022-12-03T17:40:31.268Z,50.10
2022-12-03T17:42:59.709Z,50.97
2022-12-03T17:45:29.355Z,51.63
2022-12-03T17:47:57.693Z,49.17
2022-12-03T17:50:26.090Z,50.80
2022-12-03T17:52:55.207Z,59.97
2022-12-03T17:55:32.109Z,54.10
2022-12-03T17:58:04.630Z,50.60
2022-12-03T18:00:34.678Z,49.17
2022-12-03T18:03:03.010Z,47.23
2022-12-03T18:05:31.451Z,50.33
2022-12-03T18:07:59.864Z,53.00
2022-12-03T18:10:32.061Z,77.80
2022-12-03T18:13:02.263Z,54.03
2022-12-03T18:15:31.683Z,53.87
2022-12-03T18:18:01.376Z,52.20
2022-12-03T18:20:29.939Z,53.00
2022-12-03T18:22:59.540Z,51.73
2022-12-03T18:25:28.419Z,53.03
2022-12-03T18:28:00.004Z,49.90
2022-12-03T18:30:28.437Z,50.40
2022-12-03T18:32:59.530Z,54.67
2022-12-03T18:35:29.979Z,47.97
2022-12-03T18:37:59.813Z,57.33
2022-12-03T18:40:28.578Z,50.63
2022-12-03T18:42:58.071Z,51.90
2022-12-03T18:45:26.392Z,56.50
2022-12-03T18:47:54.801Z,63.33
2022-12-03T18:50:23.115Z,61.87
2022-12-03T18:52:54.729Z,60.83
2022-12-03T18:55:23.262Z,60.00
2022-12-03T18:57:51.770Z,63.50
2022-12-03T19:00:20.543Z,61.53
2022-12-03T19:03:04.853Z,60.67
2022-12-03T19:05:34.744Z,66.03
2022-12-03T19:08:12.658Z,63.67
2022-12-03T19:10:41.736Z,57.87
2022-12-03T19:13:10.125Z,62.43
2022-12-03T19:15:39.602Z,55.07
2022-12-03T19:18:08.184Z,57.00
2022-12-03T19:20:36.953Z,64.63
2022-12-03T19:23:06.670Z,55.17
2022-12-03T19:25:36.160Z,55.73
2022-12-03T19:28:04.853Z,52.33
2022-12-03T19:30:33.116Z,52.67
2022-12-03T19:33:01.483Z,57.57
2022-12-03T19:35:31.259Z,54.97
2022-12-03T19:37:59.528Z,55.87
2022-12-03T19:40:29.874Z,58.20
2022-12-03T19:42:58.229Z,59.33
2022-12-03T19:45:26.721Z,58.87
2022-12-03T19:47:55.046Z,62.13
2022-12-03T19:50:23.833Z,56.93
2022-12-03T19:52:52.372Z,59.77
2022-12-03T19:55:20.762Z,51.97
2022-12-03T19:57:50.928Z,57.83
2022-12-03T20:00:19.925Z,64.80
2022-12-03T20:02:50.114Z,59.80
2022-12-03T20:05:18.732Z,57.47
2022-12-03T20:07:47.169Z,58.93
2022-12-03T20:10:15.754Z,59.23
2022-12-03T20:12:44.219Z,62.13
2022-12-03T20:15:15.173Z,60.53
2022-12-03T20:17:43.724Z,61.70
2022-12-03T20:20:14.886Z,60.53
2022-12-03T20:22:43.272Z,57.70
2022-12-03T20:25:12.118Z,58.83
2022-12-03T20:27:41.385Z,57.03
2022-12-03T20:30:11.474Z,60.53
2022-12-03T20:32:45.479Z,58.40
2022-12-03T20:35:15.167Z,60.17
2022-12-03T20:37:44.009Z,60.87
2022-12-03T20:40:12.894Z,58.97
2022-12-03T20:42:41.548Z,55.93
2022-12-03T20:45:11.528Z,59.33
2022-12-03T20:47:40.025Z,61.27
2022-12-03T20:50:11.041Z,69.40
2022-12-03T20:52:48.458Z,67.40
2022-12-03T20:55:26.277Z,58.77
2022-12-03T20:57:54.712Z,67.63
2022-12-03T21:00:23.972Z,60.07
2022-12-03T21:02:53.687Z,59.10
2022-12-03T21:05:23.453Z,60.63
2022-12-03T21:07:52.462Z,58.10
2022-12-03T21:10:45.031Z,57.27
2022-12-03T21:13:15.291Z,56.63
2022-12-03T21:15:45.218Z,55.23
2022-12-03T21:18:16.617Z,55.97
2022-12-03T21:20:48.291Z,58.90
2022-12-03T21:23:16.792Z,56.33
2022-12-03T21:25:45.731Z,55.00
2022-12-03T21:28:15.496Z,52.00
2022-12-03T21:30:43.846Z,53.53
2022-12-03T21:33:12.228Z,51.33
2022-12-03T21:35:40.622Z,50.03
2022-12-03T21:38:10.886Z,51.80
2022-12-03T21:40:39.370Z,61.57
2022-12-03T21:43:08.202Z,57.13
2022-12-03T21:45:36.663Z,51.07
2022-12-03T21:48:04.986Z,50.47
2022-12-03T21:50:33.528Z,51.97
2022-12-03T21:53:02.740Z,53.93
2022-12-03T21:55:32.383Z,47.30
2022-12-03T21:58:01.145Z,49.20
2022-12-03T22:00:31.869Z,49.07
2022-12-03T22:03:00.300Z,52.57
2022-12-03T22:05:29.687Z,47.00
2022-12-03T22:07:58.104Z,54.10
2022-12-03T22:10:27.269Z,47.53
2022-12-03T22:13:00.259Z,53.93
2022-12-03T22:15:29.300Z,49.97
2022-12-03T22:17:57.890Z,53.43
2022-12-03T22:20:26.256Z,50.40
2022-12-03T22:22:54.895Z,50.10
2022-12-03T22:25:23.355Z,51.80
2022-12-03T22:27:51.839Z,51.23
2022-12-03T22:30:22.130Z,49.83
2022-12-03T22:32:51.801Z,51.73
2022-12-03T22:35:20.296Z,49.27
2022-12-03T22:37:48.739Z,50.13
2022-12-03T22:40:17.736Z,50.43
2022-12-03T22:42:50.736Z,50.83
2022-12-03T22:45:21.223Z,53.10
2022-12-03T22:47:49.648Z,53.57
2022-12-03T22:50:19.853Z,58.60
2022-12-03T22:52:48.426Z,53.73
2022-12-03T22:55:16.837Z,64.27
2022-12-03T22:57:45.342Z,78.37
2022-12-03T23:00:15.281Z,60.03
2022-12-03T23:02:48.129Z,60.87
2022-12-03T23:05:16.883Z,57.43
2022-12-03T23:07:45.840Z,58.17
2022-12-03T23:10:14.876Z,60.27
2022-12-03T23:12:43.360Z,52.63
2022-12-03T23:15:12.499Z,49.40
2022-12-03T23:17:41.295Z,49.47
2022-12-03T23:20:12.492Z,51.17
2022-12-03T23:22:40.972Z,47.70
2022-12-03T23:25:12.594Z,48.23
2022-12-03T23:27:41.740Z,55.17
2022-12-03T23:30:11.944Z,55.00
2022-12-03T23:32:40.507Z,47.73
2022-12-03T23:35:13.104Z,54.80
2022-12-03T23:37:44.021Z,54.37
2022-12-03T23:40:13.836Z,52.50
2022-12-03T23:42:42.973Z,49.20
2022-12-03T23:45:12.203Z,48.57
2022-12-03T23:47:40.529Z,53.23
2022-12-03T23:50:11.701Z,55.57
2022-12-03T23:52:40.084Z,49.70
2022-12-03T23:55:09.210Z,47.13
2022-12-03T23:57:38.223Z,57.37
